createdAt,value
2018-11-02T00:01:27.145Z,32.57
2018-11-02T00:03:56.037Z,35.50
2018-11-02T00:06:25.018Z,27.03
2018-11-02T00:08:53.474Z,24.70
2018-11-02T00:11:22.070Z,22.20
2018-11-02T00:13:51.709Z,23.13
2018-11-02T00:16:20.691Z,20.50
2018-11-02T00:18:49.806Z,25.90
2018-11-02T00:21:18.486Z,29.93
2018-11-02T00:23:47.118Z,25.83
2018-11-02T00:26:15.750Z,25.47
2018-11-02T00:28:44.370Z,27.63
2018-11-02T00:31:12.982Z,21.70
2018-11-02T00:33:41.578Z,26.50
2018-11-02T00:36:10.209Z,27.13
2018-11-02T00:38:38.755Z,21.63
2018-11-02T00:41:07.343Z,28.20
2018-11-02T00:43:35.919Z,27.40
2018-11-02T00:46:04.648Z,25.17
2018-11-02T00:48:33.261Z,23.83
2018-11-02T00:51:01.783Z,20.40
2018-11-02T00:53:30.389Z,28.93
2018-11-02T00:55:58.918Z,26.70
2018-11-02T00:58:27.398Z,32.77
2018-11-02T01:00:55.968Z,28.53
2018-11-02T01:03:24.895Z,23.77
2018-11-02T01:05:53.479Z,25.33
2018-11-02T01:08:21.960Z,28.03
2018-11-02T01:10:50.525Z,21.83
2018-11-02T01:13:19.119Z,33.83
2018-11-02T01:15:47.690Z,32.00
2018-11-02T01:18:16.238Z,26.50
2018-11-02T01:20:44.721Z,24.83
2018-11-02T01:23:13.299Z,24.03
2018-11-02T01:25:41.804Z,24.03
2018-11-02T01:28:10.382Z,25.33
2018-11-02T01:30:38.913Z,27.53
2018-11-02T01:33:07.442Z,27.40
2018-11-02T01:35:36.931Z,26.87
2018-11-02T01:38:05.688Z,27.63
2018-11-02T01:40:34.239Z,27.63
2018-11-02T01:43:02.830Z,26.13
2018-11-02T01:45:31.370Z,27.20
2018-11-02T01:47:59.962Z,26.97
2018-11-02T01:50:28.486Z,27.90
2018-11-02T01:52:57.036Z,23.93
2018-11-02T01:55:25.595Z,25.43
2018-11-02T01:57:54.156Z,28.23
2018-11-02T02:00:22.726Z,29.67
2018-11-02T02:02:51.283Z,33.37
2018-11-02T02:05:19.890Z,23.97
2018-11-02T02:07:48.390Z,28.63
2018-11-02T02:10:16.907Z,29.87
2018-11-02T02:12:45.459Z,30.40
2018-11-02T02:15:14.003Z,24.30
2018-11-02T02:17:42.570Z,31.53
2018-11-02T02:20:11.281Z,22.57
2018-11-02T02:22:39.838Z,29.63
2018-11-02T02:25:08.519Z,27.80
2018-11-02T02:27:37.425Z,23.87
2018-11-02T02:30:08.362Z,22.63
2018-11-02T02:32:37.120Z,26.80
2018-11-02T02:35:05.964Z,27.57
2018-11-02T02:37:34.678Z,23.80
2018-11-02T02:40:04.215Z,27.13
2018-11-02T02:42:32.776Z,29.97
2018-11-02T02:45:01.294Z,27.67
2018-11-02T02:47:29.834Z,18.20
2018-11-02T02:49:58.364Z,25.60
2018-11-02T02:52:27.170Z,24.33
2018-11-02T02:54:56.047Z,23.17
2018-11-02T02:57:24.610Z,25.63
2018-11-02T02:59:53.227Z,21.67
2018-11-02T03:02:21.748Z,21.87
2018-11-02T03:04:50.334Z,21.33
2018-11-02T03:07:18.919Z,21.20
2018-11-02T03:09:47.460Z,27.90
2018-11-02T03:12:16.074Z,22.43
2018-11-02T03:14:44.642Z,24.20
2018-11-02T03:17:13.164Z,25.60
2018-11-02T03:19:41.767Z,24.67
2018-11-02T03:22:10.302Z,21.57
2018-11-02T03:24:38.813Z,23.47
2018-11-02T03:27:07.453Z,29.80
2018-11-02T03:29:36.367Z,25.50
2018-11-02T03:32:05.192Z,23.43
2018-11-02T03:34:33.721Z,19.17
2018-11-02T03:37:02.280Z,20.53
2018-11-02T03:39:30.811Z,22.67
2018-11-02T03:41:59.380Z,20.57
2018-11-02T03:44:27.875Z,28.07
2018-11-02T03:46:56.474Z,23.73
2018-11-02T03:49:25.562Z,26.10
2018-11-02T03:51:54.368Z,23.90
2018-11-02T03:54:22.919Z,19.13
2018-11-02T03:56:51.619Z,24.30
2018-11-02T03:59:20.000Z,20.10
2018-11-02T04:01:48.575Z,25.30
2018-11-02T04:04:17.370Z,19.40
2018-11-02T04:06:45.992Z,19.67
2018-11-02T04:09:14.734Z,22.80
2018-11-02T04:11:43.272Z,22.33
2018-11-02T04:14:11.767Z,24.97
2018-11-02T04:16:40.281Z,23.80
2018-11-02T04:19:08.860Z,21.27
2018-11-02T04:21:41.530Z,25.10
2018-11-02T04:24:10.154Z,25.10
2018-11-02T04:26:38.942Z,23.77
2018-11-02T04:29:07.476Z,19.63
2018-11-02T04:31:36.090Z,21.83
2018-11-02T04:34:04.900Z,22.07
2018-11-02T04:36:33.484Z,15.50
2018-11-02T04:39:01.971Z,20.83
2018-11-02T04:41:30.817Z,18.63
2018-11-02T04:43:59.400Z,19.37
2018-11-02T04:46:27.845Z,17.73
2018-11-02T04:48:56.315Z,19.67
2018-11-02T04:51:24.779Z,26.90
2018-11-02T04:53:55.050Z,22.07
2018-11-02T04:56:24.563Z,20.83
2018-11-02T04:58:53.029Z,23.40
2018-11-02T05:01:21.986Z,21.63
2018-11-02T05:03:50.575Z,27.57
2018-11-02T05:06:19.142Z,25.00
2018-11-02T05:08:47.647Z,31.03
2018-11-02T05:11:16.502Z,25.13
2018-11-02T05:13:44.944Z,29.93
2018-11-02T05:16:13.742Z,27.43
2018-11-02T05:18:42.312Z,34.23
2018-11-02T05:21:10.840Z,23.63
2018-11-02T05:23:39.369Z,28.17
2018-11-02T05:26:08.148Z,26.27
2018-11-02T05:28:36.721Z,26.57
2018-11-02T05:31:05.481Z,25.10
2018-11-02T05:33:33.964Z,32.90
2018-11-02T05:36:02.470Z,33.40
2018-11-02T05:38:30.956Z,29.13
2018-11-02T05:40:59.433Z,27.23
2018-11-02T05:43:27.938Z,30.47
2018-11-02T05:45:56.414Z,35.43
2018-11-02T05:48:24.974Z,28.70
2018-11-02T05:50:53.519Z,25.90
2018-11-02T05:53:22.014Z,25.60
2018-11-02T05:55:50.576Z,30.53
2018-11-02T05:58:19.079Z,27.27
2018-11-02T06:00:47.594Z,28.63
2018-11-02T06:03:16.178Z,27.57
2018-11-02T06:05:44.625Z,29.90
2018-11-02T06:08:13.176Z,33.43
2018-11-02T06:10:42.681Z,26.03
2018-11-02T06:13:11.155Z,31.23
2018-11-02T06:15:39.877Z,30.07
2018-11-02T06:18:08.309Z,31.73
2018-11-02T06:20:36.775Z,27.43
2018-11-02T06:23:05.783Z,24.60
2018-11-02T06:25:34.311Z,26.23
2018-11-02T06:28:02.789Z,27.90
2018-11-02T06:30:31.315Z,29.77
2018-11-02T06:32:59.760Z,25.90
2018-11-02T06:35:28.355Z,26.63
2018-11-02T06:37:56.835Z,35.23
2018-11-02T06:40:25.387Z,24.30
2018-11-02T06:42:53.910Z,28.70
2018-11-02T06:45:22.431Z,26.33
2018-11-02T06:47:50.895Z,37.93
2018-11-02T06:50:20.016Z,29.27
2018-11-02T06:52:48.500Z,27.60
2018-11-02T06:55:17.023Z,26.00
2018-11-02T06:57:45.523Z,26.67
2018-11-02T07:00:14.455Z,32.50
2018-11-02T07:02:42.964Z,28.13
2018-11-02T07:05:11.545Z,34.30
2018-11-02T07:07:40.189Z,29.87
2018-11-02T07:10:09.418Z,30.73
2018-11-02T07:12:38.871Z,27.90
2018-11-02T07:15:07.710Z,25.10
2018-11-02T07:17:36.270Z,23.13
2018-11-02T07:20:05.815Z,23.07
2018-11-02T07:22:34.362Z,26.00
2018-11-02T07:25:02.893Z,23.93
2018-11-02T07:27:31.723Z,24.33
2018-11-02T07:30:00.215Z,23.20
2018-11-02T07:32:28.763Z,24.63
2018-11-02T07:34:57.285Z,25.00
2018-11-02T07:37:25.800Z,20.57
2018-11-02T07:39:54.284Z,21.23
2018-11-02T07:42:22.787Z,17.87
2018-11-02T07:44:51.306Z,20.83
2018-11-02T07:47:19.894Z,19.63
2018-11-02T07:49:48.348Z,15.50
2018-11-02T07:52:16.894Z,22.00
2018-11-02T07:54:45.359Z,18.60
2018-11-02T07:57:13.870Z,19.17
2018-11-02T07:59:42.393Z,18.60
2018-11-02T08:02:10.873Z,17.40
2018-11-02T08:04:39.335Z,23.57
2018-11-02T08:07:08.025Z,19.43
2018-11-02T08:09:36.509Z,20.93
2018-11-02T08:12:05.005Z,18.67
2018-11-02T08:14:33.522Z,23.47
2018-11-02T08:17:02.010Z,19.33
2018-11-02T08:19:30.610Z,16.03
2018-11-02T08:21:59.092Z,17.83
2018-11-02T08:24:27.571Z,22.10
2018-11-02T08:26:56.213Z,18.10
2018-11-02T08:29:24.796Z,19.00
2018-11-02T08:31:53.328Z,14.47
2018-11-02T08:34:21.782Z,18.77
2018-11-02T08:36:50.359Z,18.77
2018-11-02T08:39:18.883Z,16.87
2018-11-02T08:41:47.390Z,19.77
2018-11-02T08:44:15.886Z,19.40
2018-11-02T08:46:44.385Z,21.00
2018-11-02T08:49:12.891Z,17.60
2018-11-02T08:51:41.440Z,14.30
2018-11-02T08:54:10.133Z,14.60
2018-11-02T08:56:38.908Z,16.43
2018-11-02T08:59:07.645Z,17.20
2018-11-02T09:01:36.179Z,17.60
2018-11-02T09:04:04.885Z,15.53
2018-11-02T09:06:33.326Z,17.67
2018-11-02T09:09:01.819Z,17.60
2018-11-02T09:11:30.391Z,17.27
2018-11-02T09:13:58.911Z,14.93
2018-11-02T09:16:27.422Z,18.10
2018-11-02T09:18:56.054Z,11.93
2018-11-02T09:21:24.550Z,15.70
2018-11-02T09:23:53.103Z,15.17
2018-11-02T09:26:21.652Z,14.97
2018-11-02T09:28:50.114Z,17.40
2018-11-02T09:31:18.738Z,16.37
2018-11-02T09:33:47.214Z,17.83
2018-11-02T09:36:15.650Z,14.57
2018-11-02T09:38:44.226Z,14.40
2018-11-02T09:41:12.730Z,16.23
2018-11-02T09:43:41.250Z,18.23
2018-11-02T09:46:09.730Z,16.63
2018-11-02T09:48:38.287Z,14.90
2018-11-02T09:51:06.789Z,16.57
2018-11-02T09:53:35.364Z,14.70
2018-11-02T09:56:03.930Z,17.03
2018-11-02T09:58:32.717Z,19.10
2018-11-02T10:01:02.082Z,16.43
2018-11-02T10:03:30.450Z,20.63
2018-11-02T10:05:58.997Z,14.20
2018-11-02T10:08:27.725Z,19.13
2018-11-02T10:10:56.215Z,15.13
2018-11-02T10:13:24.764Z,15.57
2018-11-02T10:15:53.300Z,15.43
2018-11-02T10:18:21.774Z,15.97
2018-11-02T10:20:50.385Z,13.73
2018-11-02T10:23:18.931Z,12.40
2018-11-02T10:25:47.516Z,10.97
2018-11-02T10:28:16.294Z,10.10
2018-11-02T10:30:44.933Z,10.87
2018-11-02T10:33:13.470Z,15.20
2018-11-02T10:35:42.413Z,14.30
2018-11-02T10:38:10.961Z,9.90
2018-11-02T10:40:41.386Z,12.37
2018-11-02T10:43:12.519Z,13.53
2018-11-02T10:45:44.052Z,11.63
2018-11-02T10:48:12.571Z,10.17
2018-11-02T10:50:41.055Z,13.33
2018-11-02T10:53:09.642Z,10.77
2018-11-02T10:55:38.135Z,11.77
2018-11-02T10:58:06.768Z,11.13
2018-11-02T11:00:40.487Z,13.10
2018-11-02T11:03:08.973Z,9.10
2018-11-02T11:05:37.448Z,11.10
2018-11-02T11:08:06.024Z,17.67
2018-11-02T11:10:34.726Z,11.70
2018-11-02T11:13:03.611Z,15.07
2018-11-02T11:15:31.905Z,11.50
2018-11-02T11:18:00.455Z,12.87
2018-11-02T11:20:29.006Z,11.97
2018-11-02T11:22:57.518Z,12.30
2018-11-02T11:25:26.034Z,13.17
2018-11-02T11:27:54.672Z,17.13
2018-11-02T11:30:23.196Z,17.67
2018-11-02T11:32:52.258Z,9.77
2018-11-02T11:35:20.968Z,9.40
2018-11-02T11:37:49.601Z,13.17
2018-11-02T11:40:19.248Z,10.77
2018-11-02T11:42:47.766Z,10.47
2018-11-02T11:45:17.582Z,11.30
2018-11-02T11:47:46.114Z,12.03
2018-11-02T11:50:18.602Z,11.67
2018-11-02T11:52:48.270Z,9.97
2018-11-02T11:55:17.356Z,14.87
2018-11-02T11:57:46.182Z,10.27
2018-11-02T12:00:16.530Z,12.90
2018-11-02T12:02:45.973Z,10.73
2018-11-02T12:08:29.143Z,10.27
2018-11-02T12:10:58.984Z,11.07
2018-11-02T12:13:37.908Z,11.37
2018-11-02T12:16:06.793Z,11.83
2018-11-02T12:18:35.198Z,9.50
2018-11-02T12:21:03.674Z,11.67
2018-11-02T12:23:32.823Z,11.80
2018-11-02T12:26:01.789Z,14.70
2018-11-02T12:28:30.290Z,13.23
2018-11-02T12:30:58.858Z,10.63
2018-11-02T12:33:27.442Z,10.67
2018-11-02T12:35:56.010Z,9.50
2018-11-02T12:38:24.545Z,14.20
2018-11-02T12:40:53.082Z,13.60
2018-11-02T12:43:21.747Z,10.57
2018-11-02T12:45:50.211Z,11.33
2018-11-02T12:48:18.830Z,12.13
2018-11-02T12:50:47.301Z,10.70
2018-11-02T12:53:15.968Z,11.37
2018-11-02T12:55:44.421Z,7.70
2018-11-02T12:58:12.889Z,12.07
2018-11-02T13:00:41.486Z,9.80
2018-11-02T13:03:10.043Z,10.40
2018-11-02T13:05:38.602Z,10.23
2018-11-02T13:08:07.082Z,11.43
2018-11-02T13:10:35.554Z,12.23
2018-11-02T13:13:04.080Z,9.27
2018-11-02T13:15:32.583Z,11.70
2018-11-02T13:18:01.319Z,15.00
2018-11-02T13:20:29.915Z,15.27
2018-11-02T13:22:58.501Z,13.03
2018-11-02T13:25:27.015Z,15.60
2018-11-02T13:27:55.563Z,12.07
2018-11-02T13:30:24.152Z,10.17
2018-11-02T13:32:52.682Z,13.87
2018-11-02T13:35:21.382Z,11.63
2018-11-02T13:37:50.568Z,14.20
2018-11-02T13:40:19.749Z,12.47
2018-11-02T13:42:55.752Z,15.67
2018-11-02T13:45:24.269Z,19.70
2018-11-02T13:47:53.573Z,17.77
2018-11-02T13:50:22.207Z,15.77
2018-11-02T13:52:50.730Z,14.33
2018-11-02T13:55:19.260Z,15.07
2018-11-02T13:57:47.988Z,18.93
2018-11-02T14:00:17.698Z,13.97
2018-11-02T14:02:46.359Z,14.33
2018-11-02T14:05:15.949Z,16.27
2018-11-02T14:07:44.442Z,14.63
2018-11-02T14:10:13.463Z,16.77
2018-11-02T14:12:42.147Z,15.53
2018-11-02T14:15:12.954Z,14.63
2018-11-02T14:17:41.999Z,20.60
2018-11-02T14:20:11.808Z,17.63
2018-11-02T14:22:40.427Z,16.80
2018-11-02T14:25:11.293Z,15.63
2018-11-02T14:27:39.838Z,16.47
2018-11-02T14:30:10.431Z,18.67
2018-11-02T14:32:39.068Z,15.10
2018-11-02T14:35:08.130Z,15.07
2018-11-02T14:37:36.925Z,15.37
2018-11-02T14:40:06.664Z,15.57
2018-11-02T14:42:35.247Z,21.03
2018-11-02T14:45:03.859Z,26.50
2018-11-02T14:47:32.377Z,24.93
2018-11-02T14:50:00.932Z,23.20
2018-11-02T14:52:29.582Z,24.83
2018-11-02T14:54:58.107Z,28.57
2018-11-02T14:57:26.692Z,40.50
2018-11-02T14:59:55.334Z,75.23
2018-11-02T15:02:23.761Z,70.13
2018-11-02T15:04:52.433Z,65.60
2018-11-02T15:07:21.011Z,45.53
2018-11-02T15:09:49.620Z,54.50
2018-11-02T15:12:18.116Z,35.60
2018-11-02T15:14:46.844Z,35.73
2018-11-02T15:17:15.876Z,38.53
2018-11-02T15:19:45.135Z,69.80
2018-11-02T15:22:13.697Z,55.73
2018-11-02T15:24:43.672Z,68.53
2018-11-02T15:27:12.205Z,72.63
2018-11-02T15:29:40.748Z,58.83
2018-11-02T15:32:09.352Z,115.37
2018-11-02T15:34:38.061Z,126.93
2018-11-02T15:37:06.663Z,56.53
2018-11-02T15:39:35.228Z,46.07
2018-11-02T15:42:03.775Z,39.90
2018-11-02T15:44:32.330Z,58.07
2018-11-02T15:47:00.905Z,69.13
2018-11-02T15:49:29.458Z,66.87
2018-11-02T15:51:58.023Z,68.40
2018-11-02T15:54:26.546Z,72.63
2018-11-02T15:56:55.158Z,68.63
2018-11-02T15:59:23.736Z,64.70
2018-11-02T16:01:52.349Z,50.10
2018-11-02T16:04:20.988Z,44.10
2018-11-02T16:06:49.794Z,49.23
2018-11-02T16:09:18.490Z,48.13
2018-11-02T16:11:47.287Z,50.43
2018-11-02T16:14:15.957Z,49.17
2018-11-02T16:16:44.480Z,48.73
2018-11-02T16:19:13.360Z,52.40
2018-11-02T16:21:42.602Z,51.67
2018-11-02T16:24:11.673Z,47.70
2018-11-02T16:26:40.895Z,43.67
2018-11-02T16:29:09.461Z,40.97
2018-11-02T16:31:38.008Z,42.47
2018-11-02T16:34:06.788Z,42.03
2018-11-02T16:36:35.386Z,38.17
2018-11-02T16:39:08.413Z,37.27
2018-11-02T16:41:36.997Z,44.50
2018-11-02T16:44:06.623Z,56.43
2018-11-02T16:46:35.207Z,49.93
2018-11-02T16:49:04.680Z,49.63
2018-11-02T16:51:33.298Z,42.63
2018-11-02T16:54:02.035Z,42.50
2018-11-02T16:56:30.626Z,40.10
2018-11-02T16:58:59.230Z,42.33
2018-11-02T17:01:27.886Z,36.97
2018-11-02T17:03:56.398Z,39.20
2018-11-02T17:06:25.756Z,34.90
2018-11-02T17:08:54.318Z,35.00
2018-11-02T17:11:22.984Z,38.73
2018-11-02T17:13:51.574Z,56.83
2018-11-02T17:16:20.311Z,87.07
2018-11-02T17:18:49.005Z,122.43
2018-11-02T17:21:17.565Z,122.47
2018-11-02T17:23:46.132Z,102.17
2018-11-02T17:26:14.712Z,55.83
2018-11-02T17:28:43.270Z,53.77
2018-11-02T17:31:11.825Z,83.80
2018-11-02T17:33:40.449Z,100.27
2018-11-02T17:36:09.052Z,89.40
2018-11-02T17:38:37.637Z,116.00
2018-11-02T17:41:06.797Z,94.83
2018-11-02T17:43:35.323Z,67.50
2018-11-02T17:46:03.947Z,92.03
2018-11-02T17:48:32.556Z,102.93
2018-11-02T17:51:01.118Z,67.37
2018-11-02T17:53:29.825Z,73.30
2018-11-02T17:55:58.600Z,51.27
2018-11-02T17:58:27.313Z,52.47
2018-11-02T18:00:55.919Z,59.93
2018-11-02T18:03:24.514Z,62.47
2018-11-02T18:05:53.137Z,72.40
2018-11-02T18:08:21.736Z,67.50
2018-11-02T18:10:50.353Z,60.63
2018-11-02T18:13:18.968Z,51.43
2018-11-02T18:15:47.438Z,49.03
2018-11-02T18:18:15.992Z,58.77
2018-11-02T18:20:44.619Z,65.17
2018-11-02T18:23:13.134Z,62.37
2018-11-02T18:25:41.699Z,56.27
2018-11-02T18:28:10.255Z,52.70
2018-11-02T18:30:38.796Z,46.40
2018-11-02T18:33:07.394Z,46.20
2018-11-02T18:35:35.999Z,44.80
2018-11-02T18:38:04.426Z,49.13
2018-11-02T18:40:32.988Z,43.47
2018-11-02T18:43:01.541Z,44.93
2018-11-02T18:45:30.023Z,47.50
2018-11-02T18:47:58.818Z,53.50
2018-11-02T18:50:27.466Z,45.00
2018-11-02T18:52:56.028Z,45.10
2018-11-02T18:55:24.737Z,44.87
2018-11-02T18:57:53.438Z,41.07
2018-11-02T19:00:22.052Z,42.23
2018-11-02T19:02:50.736Z,40.17
2018-11-02T19:05:20.742Z,44.30
2018-11-02T19:07:49.346Z,45.07
2018-11-02T19:10:17.879Z,39.37
2018-11-02T19:12:46.459Z,39.87
2018-11-02T19:15:16.129Z,39.50
2018-11-02T19:17:44.750Z,41.17
2018-11-02T19:20:13.590Z,43.97
2018-11-02T19:22:42.062Z,44.77
2018-11-02T19:25:11.976Z,40.57
2018-11-02T19:27:40.616Z,36.13
2018-11-02T19:30:10.838Z,40.53
2018-11-02T19:32:39.526Z,37.40
2018-11-02T19:35:08.862Z,39.83
2018-11-02T19:37:37.353Z,35.90
2018-11-02T19:40:09.044Z,45.33
2018-11-02T19:42:37.622Z,36.77
2018-11-02T19:45:06.546Z,35.20
2018-11-02T19:47:40.636Z,37.37
2018-11-02T19:50:10.610Z,40.50
2018-11-02T19:52:39.237Z,43.77
2018-11-02T19:55:08.796Z,36.80
2018-11-02T19:57:37.362Z,39.77
2018-11-02T20:00:07.807Z,37.67
2018-11-02T20:02:36.631Z,42.57
2018-11-02T20:05:06.324Z,39.33
2018-11-02T20:07:34.952Z,39.73
2018-11-02T20:10:03.588Z,38.50
2018-11-02T20:12:32.138Z,38.20
2018-11-02T20:15:00.748Z,36.77
2018-11-02T20:17:29.352Z,41.17
2018-11-02T20:19:57.957Z,38.47
2018-11-02T20:22:26.580Z,35.47
2018-11-02T20:24:55.136Z,41.17
2018-11-02T20:27:23.679Z,35.60
2018-11-02T20:29:52.254Z,37.10
2018-11-02T20:32:20.932Z,38.43
2018-11-02T20:34:49.488Z,35.17
2018-11-02T20:37:18.187Z,36.50
2018-11-02T20:39:46.769Z,39.90
2018-11-02T20:42:15.309Z,38.00
2018-11-02T20:44:43.966Z,38.43
2018-11-02T20:47:12.583Z,32.70
2018-11-02T20:49:41.125Z,30.10
2018-11-02T20:52:09.733Z,34.37
2018-11-02T20:54:38.364Z,35.70
2018-11-02T20:57:07.029Z,31.93
2018-11-02T20:59:35.638Z,33.93
2018-11-02T21:02:04.299Z,33.17
2018-11-02T21:04:32.838Z,30.30
2018-11-02T21:07:01.482Z,32.40
2018-11-02T21:09:30.208Z,31.93
2018-11-02T21:11:58.683Z,30.23
2018-11-02T21:14:27.398Z,33.87
2018-11-02T21:16:55.982Z,29.97
2018-11-02T21:19:24.673Z,31.73
2018-11-02T21:21:53.444Z,34.10
2018-11-02T21:24:22.531Z,32.87
2018-11-02T21:26:51.181Z,34.47
2018-11-02T21:29:20.631Z,34.40
2018-11-02T21:31:49.324Z,31.30
2018-11-02T21:34:18.509Z,29.10
2018-11-02T21:36:47.432Z,32.23
2018-11-02T21:39:16.194Z,28.60
2018-11-02T21:41:44.870Z,34.47
2018-11-02T21:44:13.559Z,31.63
2018-11-02T21:46:42.551Z,38.37
2018-11-02T21:49:11.344Z,41.47
2018-11-02T21:51:40.063Z,37.17
2018-11-02T21:54:08.862Z,36.23
2018-11-02T21:56:37.733Z,39.27
2018-11-02T21:59:06.596Z,41.97
2018-11-02T22:01:35.283Z,44.57
2018-11-02T22:04:04.195Z,37.00
2018-11-02T22:06:32.867Z,40.63
2018-11-02T22:09:01.807Z,38.97
2018-11-02T22:11:30.495Z,36.27
2018-11-02T22:13:59.100Z,40.63
2018-11-02T22:16:27.744Z,40.63
2018-11-02T22:18:56.420Z,44.97
2018-11-02T22:21:25.346Z,45.30
2018-11-02T22:24:42.459Z,36.13
2018-11-02T22:27:12.238Z,37.10
2018-11-02T22:29:41.100Z,37.43
2018-11-02T22:32:09.809Z,38.73
2018-11-02T22:34:38.597Z,34.70
2018-11-02T22:37:07.452Z,37.20
2018-11-02T22:39:36.250Z,41.63
2018-11-02T22:42:05.086Z,38.03
2018-11-02T22:44:33.786Z,38.90
2018-11-02T22:47:02.580Z,41.37
2018-11-02T22:49:31.274Z,39.20
2018-11-02T22:51:59.873Z,40.23
2018-11-02T22:54:28.613Z,39.13
2018-11-02T22:56:57.879Z,42.20
2018-11-02T22:59:26.637Z,40.80
2018-11-02T23:01:55.242Z,40.57
2018-11-02T23:04:23.922Z,38.63
2018-11-02T23:06:52.599Z,43.80
2018-11-02T23:09:21.225Z,42.73
2018-11-02T23:11:50.823Z,34.97
2018-11-02T23:14:19.517Z,41.40
2018-11-02T23:16:48.164Z,40.97
2018-11-02T23:19:16.836Z,40.97
2018-11-02T23:21:45.499Z,41.73
2018-11-02T23:24:14.152Z,45.20
2018-11-02T23:26:42.798Z,37.90
2018-11-02T23:29:11.401Z,43.40
2018-11-02T23:31:40.032Z,41.83
2018-11-02T23:34:08.610Z,46.53
2018-11-02T23:36:37.202Z,43.67
2018-11-02T23:39:07.382Z,39.50
2018-11-02T23:41:35.972Z,40.67
2018-11-02T23:44:04.768Z,38.57
2018-11-02T23:46:33.409Z,43.80
2018-11-02T23:49:02.111Z,41.20
2018-11-02T23:51:30.789Z,52.20
2018-11-02T23:53:59.511Z,45.50
2018-11-02T23:56:28.135Z,42.33
2018-11-02T23:58:56.783Z,41.97
